sensor_id;sensor_type;location;lat;lon;timestamp;P1;durP1;ratioP1;P2;durP2;ratioP2
19525;SDS011;9907;42.676;26.348;2023-05-07T00:00:04;2.70;;;1.87;;
19525;SDS011;9907;42.676;26.348;2023-05-07T00:02:33;1.67;;;1.57;;
19525;SDS011;9907;42.676;26.348;2023-05-07T00:04:58;1.60;;;1.50;;
19525;SDS011;9907;42.676;26.348;2023-05-07T00:07:24;2.87;;;1.73;;
19525;SDS011;9907;42.676;26.348;2023-05-07T00:09:49;2.37;;;1.70;;
19525;SDS011;9907;42.676;26.348;2023-05-07T00:12:15;2.20;;;1.80;;
19525;SDS011;9907;42.676;26.348;2023-05-07T00:14:40;3.87;;;2.20;;
19525;SDS011;9907;42.676;26.348;2023-05-07T00:17:06;2.57;;;1.67;;
19525;SDS011;9907;42.676;26.348;2023-05-07T00:19:31;4.40;;;2.17;;
19525;SDS011;9907;42.676;26.348;2023-05-07T00:21:57;1.80;;;1.70;;
19525;SDS011;9907;42.676;26.348;2023-05-07T00:24:23;2.77;;;1.87;;
19525;SDS011;9907;42.676;26.348;2023-05-07T00:26:49;2.53;;;1.67;;
19525;SDS011;9907;42.676;26.348;2023-05-07T00:29:15;2.80;;;2.57;;
19525;SDS011;9907;42.676;26.348;2023-05-07T00:31:40;2.77;;;1.93;;
19525;SDS011;9907;42.676;26.348;2023-05-07T00:34:06;1.83;;;1.73;;
19525;SDS011;9907;42.676;26.348;2023-05-07T00:36:31;1.90;;;1.70;;
19525;SDS011;9907;42.676;26.348;2023-05-07T00:38:57;4.70;;;1.83;;
19525;SDS011;9907;42.676;26.348;2023-05-07T00:41:25;2.37;;;1.90;;
19525;SDS011;9907;42.676;26.348;2023-05-07T00:43:51;1.73;;;1.60;;
19525;SDS011;9907;42.676;26.348;2023-05-07T00:46:17;1.90;;;1.80;;
19525;SDS011;9907;42.676;26.348;2023-05-07T00:48:43;1.83;;;1.60;;
19525;SDS011;9907;42.676;26.348;2023-05-07T00:51:09;1.43;;;1.33;;
19525;SDS011;9907;42.676;26.348;2023-05-07T00:53:36;2.30;;;1.93;;
19525;SDS011;9907;42.676;26.348;2023-05-07T00:56:02;1.40;;;1.30;;
19525;SDS011;9907;42.676;26.348;2023-05-07T00:58:28;2.00;;;1.80;;
19525;SDS011;9907;42.676;26.348;2023-05-07T01:00:53;1.83;;;1.60;;
19525;SDS011;9907;42.676;26.348;2023-05-07T01:03:19;2.73;;;1.77;;
19525;SDS011;9907;42.676;26.348;2023-05-07T01:05:44;1.63;;;1.53;;
19525;SDS011;9907;42.676;26.348;2023-05-07T01:08:12;2.50;;;2.10;;
19525;SDS011;9907;42.676;26.348;2023-05-07T01:10:39;3.40;;;1.63;;
19525;SDS011;9907;42.676;26.348;2023-05-07T01:13:07;4.57;;;2.40;;
19525;SDS011;9907;42.676;26.348;2023-05-07T01:15:35;2.23;;;1.97;;
19525;SDS011;9907;42.676;26.348;2023-05-07T01:18:01;2.53;;;1.83;;
19525;SDS011;9907;42.676;26.348;2023-05-07T01:20:26;3.23;;;1.60;;
19525;SDS011;9907;42.676;26.348;2023-05-07T01:22:53;2.93;;;1.80;;
19525;SDS011;9907;42.676;26.348;2023-05-07T01:25:19;1.70;;;1.60;;
19525;SDS011;9907;42.676;26.348;2023-05-07T01:27:45;2.40;;;1.83;;
19525;SDS011;9907;42.676;26.348;2023-05-07T01:30:11;1.97;;;1.87;;
19525;SDS011;9907;42.676;26.348;2023-05-07T01:32:38;2.53;;;1.93;;
19525;SDS011;9907;42.676;26.348;2023-05-07T01:35:09;3.67;;;1.90;;
19525;SDS011;9907;42.676;26.348;2023-05-07T01:37:36;1.80;;;1.70;;
19525;SDS011;9907;42.676;26.348;2023-05-07T01:40:03;2.77;;;1.97;;
19525;SDS011;9907;42.676;26.348;2023-05-07T01:42:29;2.67;;;1.80;;
19525;SDS011;9907;42.676;26.348;2023-05-07T01:44:56;3.70;;;1.87;;
19525;SDS011;9907;42.676;26.348;2023-05-07T01:47:21;2.37;;;2.07;;
19525;SDS011;9907;42.676;26.348;2023-05-07T01:49:48;4.07;;;2.00;;
19525;SDS011;9907;42.676;26.348;2023-05-07T01:52:13;2.43;;;1.80;;
19525;SDS011;9907;42.676;26.348;2023-05-07T01:54:39;3.07;;;2.20;;
19525;SDS011;9907;42.676;26.348;2023-05-07T01:57:04;2.40;;;2.20;;
19525;SDS011;9907;42.676;26.348;2023-05-07T01:59:30;2.90;;;2.30;;
19525;SDS011;9907;42.676;26.348;2023-05-07T02:01:56;1.80;;;1.70;;
19525;SDS011;9907;42.676;26.348;2023-05-07T02:04:21;1.90;;;1.80;;
19525;SDS011;9907;42.676;26.348;2023-05-07T02:06:46;1.87;;;1.77;;
19525;SDS011;9907;42.676;26.348;2023-05-07T02:09:12;2.30;;;2.10;;
19525;SDS011;9907;42.676;26.348;2023-05-07T02:11:40;3.93;;;1.97;;
19525;SDS011;9907;42.676;26.348;2023-05-07T02:14:05;3.30;;;2.27;;
19525;SDS011;9907;42.676;26.348;2023-05-07T02:16:31;2.33;;;2.03;;
19525;SDS011;9907;42.676;26.348;2023-05-07T02:18:56;2.23;;;1.90;;
19525;SDS011;9907;42.676;26.348;2023-05-07T02:21:23;2.30;;;1.77;;
19525;SDS011;9907;42.676;26.348;2023-05-07T02:23:50;2.87;;;2.03;;
19525;SDS011;9907;42.676;26.348;2023-05-07T02:26:15;2.57;;;2.37;;
19525;SDS011;9907;42.676;26.348;2023-05-07T02:28:41;2.90;;;2.10;;
19525;SDS011;9907;42.676;26.348;2023-05-07T02:31:06;2.00;;;1.80;;
19525;SDS011;9907;42.676;26.348;2023-05-07T02:33:32;2.30;;;2.10;;
19525;SDS011;9907;42.676;26.348;2023-05-07T02:36:04;3.17;;;2.10;;
19525;SDS011;9907;42.676;26.348;2023-05-07T02:38:31;2.37;;;2.07;;
19525;SDS011;9907;42.676;26.348;2023-05-07T02:40:57;3.57;;;2.60;;
19525;SDS011;9907;42.676;26.348;2023-05-07T02:43:22;3.57;;;2.07;;
19525;SDS011;9907;42.676;26.348;2023-05-07T02:45:48;2.17;;;1.97;;
19525;SDS011;9907;42.676;26.348;2023-05-07T02:48:13;4.17;;;2.40;;
19525;SDS011;9907;42.676;26.348;2023-05-07T02:50:39;2.37;;;2.17;;
19525;SDS011;9907;42.676;26.348;2023-05-07T02:53:04;3.40;;;2.40;;
19525;SDS011;9907;42.676;26.348;2023-05-07T02:55:30;3.50;;;2.50;;
19525;SDS011;9907;42.676;26.348;2023-05-07T02:57:56;4.43;;;2.30;;
19525;SDS011;9907;42.676;26.348;2023-05-07T03:00:21;2.50;;;2.30;;
19525;SDS011;9907;42.676;26.348;2023-05-07T03:02:47;2.83;;;2.20;;
19525;SDS011;9907;42.676;26.348;2023-05-07T03:05:13;2.27;;;2.07;;
19525;SDS011;9907;42.676;26.348;2023-05-07T03:07:39;4.93;;;2.77;;
19525;SDS011;9907;42.676;26.348;2023-05-07T03:10:06;2.80;;;2.60;;
19525;SDS011;9907;42.676;26.348;2023-05-07T03:12:31;2.83;;;2.40;;
19525;SDS011;9907;42.676;26.348;2023-05-07T03:14:57;2.27;;;2.07;;
19525;SDS011;9907;42.676;26.348;2023-05-07T03:17:22;2.93;;;2.53;;
19525;SDS011;9907;42.676;26.348;2023-05-07T03:19:48;7.30;;;2.77;;
19525;SDS011;9907;42.676;26.348;2023-05-07T03:22:14;3.03;;;2.50;;
19525;SDS011;9907;42.676;26.348;2023-05-07T03:24:39;3.57;;;2.43;;
19525;SDS011;9907;42.676;26.348;2023-05-07T03:27:05;2.80;;;2.60;;
19525;SDS011;9907;42.676;26.348;2023-05-07T03:29:30;2.53;;;2.23;;
19525;SDS011;9907;42.676;26.348;2023-05-07T03:31:56;3.23;;;2.80;;
19525;SDS011;9907;42.676;26.348;2023-05-07T03:34:21;4.20;;;2.20;;
19525;SDS011;9907;42.676;26.348;2023-05-07T03:36:50;3.03;;;2.70;;
19525;SDS011;9907;42.676;26.348;2023-05-07T03:39:15;6.00;;;3.70;;
19525;SDS011;9907;42.676;26.348;2023-05-07T03:41:40;2.90;;;2.60;;
19525;SDS011;9907;42.676;26.348;2023-05-07T03:44:06;5.43;;;2.97;;
19525;SDS011;9907;42.676;26.348;2023-05-07T03:46:32;3.10;;;2.30;;
19525;SDS011;9907;42.676;26.348;2023-05-07T03:48:58;2.73;;;2.23;;
19525;SDS011;9907;42.676;26.348;2023-05-07T03:51:24;5.60;;;2.60;;
19525;SDS011;9907;42.676;26.348;2023-05-07T03:53:50;4.87;;;2.10;;
19525;SDS011;9907;42.676;26.348;2023-05-07T03:56:18;2.40;;;2.20;;
19525;SDS011;9907;42.676;26.348;2023-05-07T03:58:44;3.13;;;2.53;;
19525;SDS011;9907;42.676;26.348;2023-05-07T04:01:09;3.73;;;2.50;;
19525;SDS011;9907;42.676;26.348;2023-05-07T04:03:35;2.67;;;2.27;;
19525;SDS011;9907;42.676;26.348;2023-05-07T04:06:00;3.70;;;2.13;;
19525;SDS011;9907;42.676;26.348;2023-05-07T04:08:26;3.10;;;2.30;;
19525;SDS011;9907;42.676;26.348;2023-05-07T04:10:57;3.87;;;2.30;;
19525;SDS011;9907;42.676;26.348;2023-05-07T04:13:23;2.57;;;2.00;;
19525;SDS011;9907;42.676;26.348;2023-05-07T04:15:50;5.43;;;2.77;;
19525;SDS011;9907;42.676;26.348;2023-05-07T04:18:16;3.70;;;2.03;;
19525;SDS011;9907;42.676;26.348;2023-05-07T04:20:42;4.10;;;2.17;;
19525;SDS011;9907;42.676;26.348;2023-05-07T04:23:07;2.77;;;2.07;;
19525;SDS011;9907;42.676;26.348;2023-05-07T04:25:33;7.30;;;2.60;;
19525;SDS011;9907;42.676;26.348;2023-05-07T04:27:59;3.63;;;2.30;;
19525;SDS011;9907;42.676;26.348;2023-05-07T04:30:25;2.43;;;2.10;;
19525;SDS011;9907;42.676;26.348;2023-05-07T04:32:52;4.00;;;2.30;;
19525;SDS011;9907;42.676;26.348;2023-05-07T04:35:18;3.10;;;2.40;;
19525;SDS011;9907;42.676;26.348;2023-05-07T04:37:44;3.20;;;2.00;;
19525;SDS011;9907;42.676;26.348;2023-05-07T04:40:09;3.07;;;2.27;;
19525;SDS011;9907;42.676;26.348;2023-05-07T04:42:35;2.93;;;2.57;;
19525;SDS011;9907;42.676;26.348;2023-05-07T04:45:01;3.90;;;2.43;;
19525;SDS011;9907;42.676;26.348;2023-05-07T04:47:27;4.10;;;2.60;;
19525;SDS011;9907;42.676;26.348;2023-05-07T04:49:52;2.83;;;2.07;;
19525;SDS011;9907;42.676;26.348;2023-05-07T04:52:18;2.17;;;1.97;;
19525;SDS011;9907;42.676;26.348;2023-05-07T04:54:43;2.93;;;2.23;;
19525;SDS011;9907;42.676;26.348;2023-05-07T04:57:08;4.20;;;2.70;;
19525;SDS011;9907;42.676;26.348;2023-05-07T04:59:34;2.67;;;2.23;;
19525;SDS011;9907;42.676;26.348;2023-05-07T05:02:00;5.63;;;2.40;;
19525;SDS011;9907;42.676;26.348;2023-05-07T05:04:26;3.33;;;2.57;;
19525;SDS011;9907;42.676;26.348;2023-05-07T05:06:52;2.20;;;2.07;;
19525;SDS011;9907;42.676;26.348;2023-05-07T05:09:17;2.67;;;2.30;;
19525;SDS011;9907;42.676;26.348;2023-05-07T05:11:43;4.00;;;2.50;;
19525;SDS011;9907;42.676;26.348;2023-05-07T05:14:08;3.67;;;2.50;;
19525;SDS011;9907;42.676;26.348;2023-05-07T05:16:34;3.97;;;2.47;;
19525;SDS011;9907;42.676;26.348;2023-05-07T05:18:59;5.83;;;2.50;;
19525;SDS011;9907;42.676;26.348;2023-05-07T05:21:26;3.73;;;2.00;;
19525;SDS011;9907;42.676;26.348;2023-05-07T05:23:52;6.27;;;1.97;;
19525;SDS011;9907;42.676;26.348;2023-05-07T05:26:17;2.53;;;2.13;;
19525;SDS011;9907;42.676;26.348;2023-05-07T05:28:43;2.70;;;1.83;;
19525;SDS011;9907;42.676;26.348;2023-05-07T05:31:09;4.90;;;2.10;;
19525;SDS011;9907;42.676;26.348;2023-05-07T05:33:35;4.10;;;1.80;;
19525;SDS011;9907;42.676;26.348;2023-05-07T05:36:00;2.53;;;1.70;;
19525;SDS011;9907;42.676;26.348;2023-05-07T05:38:26;4.10;;;2.00;;
19525;SDS011;9907;42.676;26.348;2023-05-07T05:40:51;3.00;;;1.90;;
19525;SDS011;9907;42.676;26.348;2023-05-07T05:43:16;2.20;;;1.90;;
19525;SDS011;9907;42.676;26.348;2023-05-07T05:45:42;4.30;;;2.10;;
19525;SDS011;9907;42.676;26.348;2023-05-07T05:48:07;3.97;;;2.00;;
19525;SDS011;9907;42.676;26.348;2023-05-07T05:50:33;2.60;;;2.20;;
19525;SDS011;9907;42.676;26.348;2023-05-07T05:53:00;4.20;;;1.70;;
19525;SDS011;9907;42.676;26.348;2023-05-07T05:55:26;2.43;;;1.77;;
19525;SDS011;9907;42.676;26.348;2023-05-07T05:57:51;2.90;;;1.97;;
19525;SDS011;9907;42.676;26.348;2023-05-07T06:00:17;2.63;;;1.60;;
19525;SDS011;9907;42.676;26.348;2023-05-07T06:02:42;2.50;;;1.90;;
19525;SDS011;9907;42.676;26.348;2023-05-07T06:05:08;2.57;;;1.87;;
19525;SDS011;9907;42.676;26.348;2023-05-07T06:07:34;3.50;;;1.70;;
19525;SDS011;9907;42.676;26.348;2023-05-07T06:10:00;3.27;;;1.80;;
19525;SDS011;9907;42.676;26.348;2023-05-07T06:12:26;2.67;;;1.67;;
19525;SDS011;9907;42.676;26.348;2023-05-07T06:14:52;3.67;;;2.10;;
19525;SDS011;9907;42.676;26.348;2023-05-07T06:17:17;3.00;;;1.80;;
19525;SDS011;9907;42.676;26.348;2023-05-07T06:19:42;3.33;;;1.80;;
19525;SDS011;9907;42.676;26.348;2023-05-07T06:22:08;3.03;;;1.40;;
19525;SDS011;9907;42.676;26.348;2023-05-07T06:24:33;1.73;;;1.63;;
19525;SDS011;9907;42.676;26.348;2023-05-07T06:26:59;3.77;;;1.63;;
19525;SDS011;9907;42.676;26.348;2023-05-07T06:29:24;3.80;;;1.80;;
19525;SDS011;9907;42.676;26.348;2023-05-07T06:31:52;2.40;;;1.60;;
19525;SDS011;9907;42.676;26.348;2023-05-07T06:34:17;3.93;;;2.13;;
19525;SDS011;9907;42.676;26.348;2023-05-07T06:36:43;1.77;;;1.53;;
19525;SDS011;9907;42.676;26.348;2023-05-07T06:39:08;2.43;;;2.03;;
19525;SDS011;9907;42.676;26.348;2023-05-07T06:41:34;3.07;;;1.40;;
19525;SDS011;9907;42.676;26.348;2023-05-07T06:44:01;3.43;;;2.00;;
19525;SDS011;9907;42.676;26.348;2023-05-07T06:46:27;3.00;;;1.70;;
19525;SDS011;9907;42.676;26.348;2023-05-07T06:48:52;2.00;;;1.50;;
19525;SDS011;9907;42.676;26.348;2023-05-07T06:51:18;1.90;;;1.70;;
19525;SDS011;9907;42.676;26.348;2023-05-07T06:53:43;5.30;;;2.07;;
19525;SDS011;9907;42.676;26.348;2023-05-07T06:56:09;2.33;;;1.70;;
19525;SDS011;9907;42.676;26.348;2023-05-07T06:58:34;3.33;;;1.77;;
19525;SDS011;9907;42.676;26.348;2023-05-07T07:01:00;4.13;;;2.00;;
19525;SDS011;9907;42.676;26.348;2023-05-07T07:03:25;1.77;;;1.67;;
19525;SDS011;9907;42.676;26.348;2023-05-07T07:05:51;5.47;;;1.80;;
19525;SDS011;9907;42.676;26.348;2023-05-07T07:08:18;2.63;;;1.50;;
19525;SDS011;9907;42.676;26.348;2023-05-07T07:10:43;3.27;;;1.83;;
19525;SDS011;9907;42.676;26.348;2023-05-07T07:13:09;2.10;;;1.80;;
19525;SDS011;9907;42.676;26.348;2023-05-07T07:15:34;2.80;;;1.70;;
19525;SDS011;9907;42.676;26.348;2023-05-07T07:18:00;2.47;;;1.80;;
19525;SDS011;9907;42.676;26.348;2023-05-07T07:20:25;2.80;;;1.90;;
19525;SDS011;9907;42.676;26.348;2023-05-07T07:22:50;4.20;;;1.83;;
19525;SDS011;9907;42.676;26.348;2023-05-07T07:25:16;1.90;;;1.70;;
19525;SDS011;9907;42.676;26.348;2023-05-07T07:27:42;1.57;;;1.47;;
19525;SDS011;9907;42.676;26.348;2023-05-07T07:30:07;2.17;;;1.63;;
19525;SDS011;9907;42.676;26.348;2023-05-07T07:32:33;3.13;;;1.70;;
19525;SDS011;9907;42.676;26.348;2023-05-07T07:34:59;3.07;;;2.00;;
19525;SDS011;9907;42.676;26.348;2023-05-07T07:37:25;3.93;;;1.83;;
19525;SDS011;9907;42.676;26.348;2023-05-07T07:39:50;2.70;;;2.37;;
19525;SDS011;9907;42.676;26.348;2023-05-07T07:42:16;2.43;;;1.90;;
19525;SDS011;9907;42.676;26.348;2023-05-07T07:44:41;5.00;;;1.90;;
19525;SDS011;9907;42.676;26.348;2023-05-07T07:47:07;4.53;;;1.67;;
19525;SDS011;9907;42.676;26.348;2023-05-07T07:49:32;2.83;;;1.60;;
19525;SDS011;9907;42.676;26.348;2023-05-07T07:51:57;4.27;;;1.60;;
19525;SDS011;9907;42.676;26.348;2023-05-07T07:54:24;3.20;;;1.57;;
19525;SDS011;9907;42.676;26.348;2023-05-07T07:56:50;2.50;;;1.57;;
19525;SDS011;9907;42.676;26.348;2023-05-07T07:59:15;2.70;;;1.63;;
19525;SDS011;9907;42.676;26.348;2023-05-07T08:01:43;2.50;;;1.87;;
19525;SDS011;9907;42.676;26.348;2023-05-07T08:04:09;3.47;;;1.60;;
19525;SDS011;9907;42.676;26.348;2023-05-07T08:06:35;1.93;;;1.53;;
19525;SDS011;9907;42.676;26.348;2023-05-07T08:09:01;2.17;;;1.50;;
19525;SDS011;9907;42.676;26.348;2023-05-07T08:11:27;1.67;;;1.57;;
19525;SDS011;9907;42.676;26.348;2023-05-07T08:13:53;2.30;;;1.70;;
19525;SDS011;9907;42.676;26.348;2023-05-07T08:16:20;3.30;;;1.67;;
19525;SDS011;9907;42.676;26.348;2023-05-07T08:18:45;3.67;;;1.53;;
19525;SDS011;9907;42.676;26.348;2023-05-07T08:21:11;2.57;;;1.30;;
19525;SDS011;9907;42.676;26.348;2023-05-07T08:23:36;2.13;;;1.70;;
19525;SDS011;9907;42.676;26.348;2023-05-07T08:26:02;4.90;;;1.57;;
19525;SDS011;9907;42.676;26.348;2023-05-07T08:28:27;1.87;;;1.60;;
19525;SDS011;9907;42.676;26.348;2023-05-07T08:30:53;2.27;;;1.50;;
19525;SDS011;9907;42.676;26.348;2023-05-07T08:33:18;2.13;;;1.70;;
19525;SDS011;9907;42.676;26.348;2023-05-07T08:35:44;1.40;;;1.30;;
19525;SDS011;9907;42.676;26.348;2023-05-07T08:38:09;1.67;;;1.40;;
19525;SDS011;9907;42.676;26.348;2023-05-07T08:40:36;1.73;;;1.57;;
19525;SDS011;9907;42.676;26.348;2023-05-07T08:43:05;1.73;;;1.60;;
19525;SDS011;9907;42.676;26.348;2023-05-07T08:45:30;1.73;;;1.60;;
19525;SDS011;9907;42.676;26.348;2023-05-07T08:47:59;1.70;;;1.60;;
19525;SDS011;9907;42.676;26.348;2023-05-07T08:50:26;1.70;;;1.60;;
19525;SDS011;9907;42.676;26.348;2023-05-07T08:52:52;3.17;;;1.50;;
19525;SDS011;9907;42.676;26.348;2023-05-07T08:55:18;2.77;;;1.60;;
19525;SDS011;9907;42.676;26.348;2023-05-07T08:57:43;1.90;;;1.50;;
19525;SDS011;9907;42.676;26.348;2023-05-07T09:00:09;1.80;;;1.50;;
19525;SDS011;9907;42.676;26.348;2023-05-07T09:02:35;2.40;;;1.43;;
19525;SDS011;9907;42.676;26.348;2023-05-07T09:05:01;2.50;;;1.40;;
19525;SDS011;9907;42.676;26.348;2023-05-07T09:07:27;2.70;;;1.50;;
19525;SDS011;9907;42.676;26.348;2023-05-07T09:09:53;1.27;;;1.17;;
19525;SDS011;9907;42.676;26.348;2023-05-07T09:12:22;1.40;;;1.30;;
19525;SDS011;9907;42.676;26.348;2023-05-07T09:14:48;2.03;;;1.70;;
19525;SDS011;9907;42.676;26.348;2023-05-07T09:17:17;2.87;;;1.50;;
19525;SDS011;9907;42.676;26.348;2023-05-07T09:19:44;4.00;;;1.50;;
19525;SDS011;9907;42.676;26.348;2023-05-07T09:22:10;2.33;;;1.80;;
19525;SDS011;9907;42.676;26.348;2023-05-07T09:24:36;2.80;;;1.80;;
19525;SDS011;9907;42.676;26.348;2023-05-07T09:27:06;4.37;;;1.73;;
19525;SDS011;9907;42.676;26.348;2023-05-07T09:29:33;1.97;;;1.23;;
19525;SDS011;9907;42.676;26.348;2023-05-07T09:32:03;2.10;;;1.60;;
19525;SDS011;9907;42.676;26.348;2023-05-07T09:34:32;1.80;;;1.70;;
19525;SDS011;9907;42.676;26.348;2023-05-07T09:37:03;1.70;;;1.60;;
19525;SDS011;9907;42.676;26.348;2023-05-07T09:39:43;1.57;;;1.47;;
19525;SDS011;9907;42.676;26.348;2023-05-07T09:42:10;5.00;;;2.13;;
19525;SDS011;9907;42.676;26.348;2023-05-07T09:44:40;2.17;;;1.30;;
19525;SDS011;9907;42.676;26.348;2023-05-07T09:47:06;2.67;;;1.60;;
19525;SDS011;9907;42.676;26.348;2023-05-07T09:49:37;3.93;;;1.40;;
19525;SDS011;9907;42.676;26.348;2023-05-07T09:52:05;1.70;;;1.60;;
19525;SDS011;9907;42.676;26.348;2023-05-07T09:54:34;1.70;;;1.60;;
19525;SDS011;9907;42.676;26.348;2023-05-07T09:57:03;3.40;;;1.43;;
19525;SDS011;9907;42.676;26.348;2023-05-07T09:59:30;3.30;;;1.60;;
19525;SDS011;9907;42.676;26.348;2023-05-07T10:01:58;1.40;;;1.30;;
19525;SDS011;9907;42.676;26.348;2023-05-07T10:04:25;1.40;;;1.30;;
19525;SDS011;9907;42.676;26.348;2023-05-07T10:06:51;2.17;;;1.37;;
19525;SDS011;9907;42.676;26.348;2023-05-07T10:09:18;2.13;;;1.80;;
19525;SDS011;9907;42.676;26.348;2023-05-07T10:11:44;1.83;;;1.60;;
19525;SDS011;9907;42.676;26.348;2023-05-07T10:14:10;2.17;;;1.73;;
19525;SDS011;9907;42.676;26.348;2023-05-07T10:16:36;2.10;;;1.40;;
19525;SDS011;9907;42.676;26.348;2023-05-07T10:19:06;1.87;;;1.40;;
19525;SDS011;9907;42.676;26.348;2023-05-07T10:21:37;1.90;;;1.70;;
19525;SDS011;9907;42.676;26.348;2023-05-07T10:24:10;2.37;;;1.53;;
19525;SDS011;9907;42.676;26.348;2023-05-07T10:26:42;2.60;;;1.90;;
19525;SDS011;9907;42.676;26.348;2023-05-07T10:29:55;2.03;;;1.20;;
19525;SDS011;9907;42.676;26.348;2023-05-07T10:35:02;3.07;;;1.90;;
19525;SDS011;9907;42.676;26.348;2023-05-07T10:37:29;1.47;;;1.30;;
19525;SDS011;9907;42.676;26.348;2023-05-07T10:39:55;1.63;;;1.53;;
19525;SDS011;9907;42.676;26.348;2023-05-07T10:42:22;1.27;;;1.17;;
19525;SDS011;9907;42.676;26.348;2023-05-07T10:44:48;1.27;;;1.10;;
19525;SDS011;9907;42.676;26.348;2023-05-07T10:47:14;2.17;;;1.30;;
19525;SDS011;9907;42.676;26.348;2023-05-07T10:52:23;1.50;;;1.40;;
19525;SDS011;9907;42.676;26.348;2023-05-07T10:57:51;2.73;;;1.20;;
19525;SDS011;9907;42.676;26.348;2023-05-07T11:05:26;2.93;;;1.60;;
19525;SDS011;9907;42.676;26.348;2023-05-07T11:07:57;1.20;;;1.10;;
19525;SDS011;9907;42.676;26.348;2023-05-07T11:10:23;2.80;;;2.30;;
19525;SDS011;9907;42.676;26.348;2023-05-07T11:16:19;1.10;;;1.10;;
19525;SDS011;9907;42.676;26.348;2023-05-07T11:18:55;1.73;;;1.30;;
19525;SDS011;9907;42.676;26.348;2023-05-07T11:21:40;3.03;;;1.33;;
19525;SDS011;9907;42.676;26.348;2023-05-07T11:24:07;2.30;;;1.20;;
19525;SDS011;9907;42.676;26.348;2023-05-07T11:26:46;1.40;;;1.30;;
19525;SDS011;9907;42.676;26.348;2023-05-07T11:29:13;1.50;;;1.40;;
19525;SDS011;9907;42.676;26.348;2023-05-07T11:31:41;1.67;;;1.40;;
19525;SDS011;9907;42.676;26.348;2023-05-07T11:34:06;1.80;;;1.50;;
19525;SDS011;9907;42.676;26.348;2023-05-07T11:36:33;3.30;;;1.80;;
19525;SDS011;9907;42.676;26.348;2023-05-07T11:38:58;2.73;;;1.70;;
19525;SDS011;9907;42.676;26.348;2023-05-07T11:41:36;4.80;;;1.70;;
19525;SDS011;9907;42.676;26.348;2023-05-07T11:44:02;1.40;;;1.03;;
19525;SDS011;9907;42.676;26.348;2023-05-07T11:46:28;1.63;;;1.50;;
19525;SDS011;9907;42.676;26.348;2023-05-07T11:48:54;1.90;;;1.50;;
19525;SDS011;9907;42.676;26.348;2023-05-07T11:51:21;3.57;;;2.50;;
19525;SDS011;9907;42.676;26.348;2023-05-07T11:53:49;1.83;;;1.60;;
19525;SDS011;9907;42.676;26.348;2023-05-07T11:56:16;2.63;;;2.07;;
19525;SDS011;9907;42.676;26.348;2023-05-07T11:58:43;3.53;;;2.43;;
19525;SDS011;9907;42.676;26.348;2023-05-07T12:01:09;2.03;;;1.83;;
19525;SDS011;9907;42.676;26.348;2023-05-07T12:03:45;2.83;;;1.40;;
19525;SDS011;9907;42.676;26.348;2023-05-07T12:06:11;1.70;;;1.60;;
19525;SDS011;9907;42.676;26.348;2023-05-07T12:08:39;1.50;;;1.40;;
19525;SDS011;9907;42.676;26.348;2023-05-07T12:11:09;2.27;;;1.57;;
19525;SDS011;9907;42.676;26.348;2023-05-07T12:13:38;1.57;;;1.47;;
19525;SDS011;9907;42.676;26.348;2023-05-07T12:16:04;1.60;;;1.50;;
19525;SDS011;9907;42.676;26.348;2023-05-07T12:18:31;2.87;;;1.80;;
19525;SDS011;9907;42.676;26.348;2023-05-07T12:20:57;2.37;;;1.70;;
19525;SDS011;9907;42.676;26.348;2023-05-07T12:23:24;2.70;;;2.00;;
19525;SDS011;9907;42.676;26.348;2023-05-07T12:25:50;5.17;;;3.27;;
19525;SDS011;9907;42.676;26.348;2023-05-07T12:28:16;2.77;;;2.00;;
19525;SDS011;9907;42.676;26.348;2023-05-07T12:30:43;3.20;;;2.40;;
19525;SDS011;9907;42.676;26.348;2023-05-07T12:33:09;2.10;;;1.90;;
19525;SDS011;9907;42.676;26.348;2023-05-07T12:35:36;2.87;;;1.50;;
19525;SDS011;9907;42.676;26.348;2023-05-07T12:38:07;2.60;;;1.60;;
19525;SDS011;9907;42.676;26.348;2023-05-07T12:43:24;2.47;;;2.27;;
19525;SDS011;9907;42.676;26.348;2023-05-07T12:45:51;4.83;;;2.30;;
19525;SDS011;9907;42.676;26.348;2023-05-07T12:48:18;3.63;;;2.60;;
19525;SDS011;9907;42.676;26.348;2023-05-07T12:50:44;4.50;;;2.10;;
19525;SDS011;9907;42.676;26.348;2023-05-07T12:53:11;2.53;;;2.33;;
19525;SDS011;9907;42.676;26.348;2023-05-07T12:58:18;3.23;;;1.97;;
19525;SDS011;9907;42.676;26.348;2023-05-07T13:00:49;3.47;;;1.87;;
19525;SDS011;9907;42.676;26.348;2023-05-07T13:03:22;1.93;;;1.73;;
19525;SDS011;9907;42.676;26.348;2023-05-07T13:05:49;2.37;;;1.50;;
19525;SDS011;9907;42.676;26.348;2023-05-07T13:08:33;3.10;;;1.80;;
19525;SDS011;9907;42.676;26.348;2023-05-07T13:11:02;3.80;;;3.40;;
19525;SDS011;9907;42.676;26.348;2023-05-07T13:13:32;6.20;;;2.90;;
19525;SDS011;9907;42.676;26.348;2023-05-07T13:16:00;3.27;;;2.67;;
19525;SDS011;9907;42.676;26.348;2023-05-07T13:18:26;2.10;;;1.50;;
19525;SDS011;9907;42.676;26.348;2023-05-07T13:20:53;2.80;;;1.90;;
19525;SDS011;9907;42.676;26.348;2023-05-07T13:23:19;2.20;;;1.70;;
19525;SDS011;9907;42.676;26.348;2023-05-07T13:25:44;1.67;;;1.40;;
19525;SDS011;9907;42.676;26.348;2023-05-07T13:28:10;3.17;;;1.70;;
19525;SDS011;9907;42.676;26.348;2023-05-07T13:30:36;1.50;;;1.40;;
19525;SDS011;9907;42.676;26.348;2023-05-07T13:33:01;1.87;;;1.60;;
19525;SDS011;9907;42.676;26.348;2023-05-07T13:35:27;2.87;;;1.30;;
19525;SDS011;9907;42.676;26.348;2023-05-07T13:37:53;2.80;;;1.67;;
19525;SDS011;9907;42.676;26.348;2023-05-07T13:40:20;2.03;;;1.40;;
19525;SDS011;9907;42.676;26.348;2023-05-07T13:42:46;2.00;;;1.77;;
19525;SDS011;9907;42.676;26.348;2023-05-07T13:45:12;2.87;;;2.17;;
19525;SDS011;9907;42.676;26.348;2023-05-07T13:47:39;2.60;;;2.40;;
19525;SDS011;9907;42.676;26.348;2023-05-07T13:50:08;6.03;;;2.53;;
19525;SDS011;9907;42.676;26.348;2023-05-07T13:52:34;5.03;;;3.07;;
19525;SDS011;9907;42.676;26.348;2023-05-07T13:55:00;3.00;;;2.70;;
19525;SDS011;9907;42.676;26.348;2023-05-07T13:57:26;3.40;;;3.10;;
19525;SDS011;9907;42.676;26.348;2023-05-07T13:59:51;2.90;;;2.50;;
19525;SDS011;9907;42.676;26.348;2023-05-07T14:02:16;2.03;;;1.83;;
19525;SDS011;9907;42.676;26.348;2023-05-07T14:04:42;4.30;;;2.37;;
19525;SDS011;9907;42.676;26.348;2023-05-07T14:07:07;2.50;;;1.60;;
19525;SDS011;9907;42.676;26.348;2023-05-07T14:09:33;4.23;;;2.27;;
19525;SDS011;9907;42.676;26.348;2023-05-07T14:11:58;2.73;;;2.37;;
19525;SDS011;9907;42.676;26.348;2023-05-07T14:14:24;3.30;;;3.00;;
19525;SDS011;9907;42.676;26.348;2023-05-07T14:16:49;2.93;;;2.63;;
19525;SDS011;9907;42.676;26.348;2023-05-07T14:19:15;2.33;;;2.10;;
19525;SDS011;9907;42.676;26.348;2023-05-07T14:21:40;3.60;;;2.20;;
19525;SDS011;9907;42.676;26.348;2023-05-07T14:24:06;3.80;;;2.20;;
19525;SDS011;9907;42.676;26.348;2023-05-07T14:26:33;2.50;;;2.30;;
19525;SDS011;9907;42.676;26.348;2023-05-07T14:28:59;1.50;;;1.40;;
19525;SDS011;9907;42.676;26.348;2023-05-07T14:31:25;2.10;;;1.50;;
19525;SDS011;9907;42.676;26.348;2023-05-07T14:33:51;2.57;;;1.50;;
19525;SDS011;9907;42.676;26.348;2023-05-07T14:36:17;3.70;;;1.50;;
19525;SDS011;9907;42.676;26.348;2023-05-07T14:38:45;5.93;;;3.40;;
19525;SDS011;9907;42.676;26.348;2023-05-07T14:41:11;2.47;;;2.13;;
19525;SDS011;9907;42.676;26.348;2023-05-07T14:43:36;3.40;;;2.43;;
19525;SDS011;9907;42.676;26.348;2023-05-07T14:46:02;4.03;;;3.03;;
19525;SDS011;9907;42.676;26.348;2023-05-07T14:48:27;3.47;;;3.00;;
19525;SDS011;9907;42.676;26.348;2023-05-07T14:50:53;3.00;;;2.70;;
19525;SDS011;9907;42.676;26.348;2023-05-07T14:53:18;4.03;;;2.17;;
19525;SDS011;9907;42.676;26.348;2023-05-07T14:55:44;3.03;;;2.37;;
19525;SDS011;9907;42.676;26.348;2023-05-07T14:58:10;2.23;;;2.00;;
19525;SDS011;9907;42.676;26.348;2023-05-07T15:00:35;2.30;;;1.73;;
19525;SDS011;9907;42.676;26.348;2023-05-07T15:03:05;2.13;;;1.57;;
19525;SDS011;9907;42.676;26.348;2023-05-07T15:05:34;5.57;;;2.00;;